Time;durP1;ratioP1;P1;durP2;ratioP2;P2;SDS_P1;SDS_P2;PMS_P1;PMS_P2;Temp;Humidity;BMP_temperature;BMP_pressure;BME280_temperature;BME280_humidity;BME280_pressure;Samples;Min_cycle;Max_cycle;Signal;HPM_P1;HPM_P2
2021/12/10 00:02:01;;;;;;;19.83;4.50;;;;;;;;;;143725;584;46020;-57
2021/12/10 00:04:32;;;;;;;18.50;4.12;;;;;;;;;;143725;569;46011;-56
2021/12/10 00:07:04;;;;;;;15.52;4.00;;;;;;;;;;143728;570;46012;-57
2021/12/10 00:09:43;;;;;;;17.17;4.95;;;;;;;;;;143723;615;46022;-56
2021/12/10 00:12:21;;;;;;;17.20;4.37;;;;;;;;;;143724;585;46021;-56
2021/12/10 00:14:48;;;;;;;17.75;4.35;;;;;;;;;;143724;580;46010;-56
2021/12/10 00:17:16;;;;;;;13.85;3.97;;;;;;;;;;143726;629;46020;-57
2021/12/10 00:19:49;;;;;;;20.77;4.68;;;;;;;;;;143726;567;47021;-55
2021/12/10 00:22:40;;;;;;;19.55;4.40;;;;;;;;;;143726;605;46020;-55
2021/12/10 00:25:18;;;;;;;12.90;4.45;;;;;;;;;;143724;610;46010;-56
2021/12/10 00:27:47;;;;;;;17.52;4.43;;;;;;;;;;143726;606;46013;-57
2021/12/10 00:30:18;;;;;;;21.17;5.22;;;;;;;;;;143726;587;47020;-57
2021/12/10 00:32:59;;;;;;;15.10;4.35;;;;;;;;;;143724;566;46020;-57
2021/12/10 00:35:30;;;;;;;13.30;4.45;;;;;;;;;;143726;673;46010;-56
2021/12/10 00:37:57;;;;;;;10.60;3.70;;;;;;;;;;143726;586;46020;-55
2021/12/10 00:40:26;;;;;;;18.10;4.70;;;;;;;;;;143725;600;46022;-56
2021/12/10 00:42:54;;;;;;;13.07;4.60;;;;;;;;;;143725;573;46021;-56
2021/12/10 00:45:23;;;;;;;21.37;5.68;;;;;;;;;;143726;603;46010;-57
2021/12/10 00:47:51;;;;;;;19.75;6.25;;;;;;;;;;143727;576;46020;-57
2021/12/10 00:50:26;;;;;;;23.25;6.57;;;;;;;;;;143730;610;46022;-57
2021/12/10 00:52:53;;;;;;;19.15;6.35;;;;;;;;;;143725;564;46020;-56
2021/12/10 00:55:22;;;;;;;21.50;7.35;;;;;;;;;;143723;614;46020;-55
2021/12/10 00:57:49;;;;;;;17.05;6.95;;;;;;;;;;143727;567;46020;-55
2021/12/10 01:00:23;;;;;;;17.67;7.72;;;;;;;;;;143726;579;46023;-57
2021/12/10 01:02:50;;;;;;;16.03;6.80;;;;;;;;;;143726;577;46917;-57
2021/12/10 01:05:20;;;;;;;20.60;7.40;;;;;;;;;;143736;569;46020;-57
2021/12/10 01:07:48;;;;;;;17.33;7.60;;;;;;;;;;143742;602;46020;-57
2021/12/10 01:10:28;;;;;;;22.40;8.60;;;;;;;;;;143743;590;46022;-57
2021/12/10 01:12:59;;;;;;;21.75;8.48;;;;;;;;;;143739;645;46021;-57
2021/12/10 01:15:48;;;;;;;18.00;7.57;;;;;;;;;;143740;600;46010;-56
2021/12/10 01:23:58;;;;;;;18.37;6.82;;;;;;;;;;143741;638;46915;-57
2021/12/10 01:29:33;;;;;;;14.48;7.18;;;;;;;;;;143740;632;46020;-57
2021/12/10 01:32:04;;;;;;;16.60;7.35;;;;;;;;;;143742;609;46022;-57
2021/12/10 01:34:32;;;;;;;13.85;6.32;;;;;;;;;;143740;676;46021;-57
2021/12/10 01:37:01;;;;;;;16.67;8.18;;;;;;;;;;143740;609;46010;-56
2021/12/10 01:39:33;;;;;;;16.48;7.93;;;;;;;;;;143745;707;46020;-55
2021/12/10 01:42:15;;;;;;;16.87;8.18;;;;;;;;;;143743;684;46022;-56
2021/12/10 01:44:46;;;;;;;16.33;7.78;;;;;;;;;;143728;581;46868;-56
2021/12/10 01:47:16;;;;;;;16.37;7.15;;;;;;;;;;143742;597;46010;-56
2021/12/10 01:49:44;;;;;;;14.20;6.97;;;;;;;;;;143744;703;45021;-57
2021/12/10 01:52:16;;;;;;;14.00;6.57;;;;;;;;;;143735;598;46023;-57
2021/12/10 01:54:52;;;;;;;13.57;6.20;;;;;;;;;;143741;590;46020;-57
2021/12/10 01:57:22;;;;;;;14.50;6.78;;;;;;;;;;143739;610;46011;-57
2021/12/10 01:59:50;;;;;;;12.18;6.03;;;;;;;;;;143743;651;46020;-56
2021/12/10 02:02:24;;;;;;;16.95;6.78;;;;;;;;;;143742;608;46022;-57
2021/12/10 02:04:52;;;;;;;14.02;6.57;;;;;;;;;;143729;645;46021;-57
2021/12/10 02:07:22;;;;;;;16.00;6.50;;;;;;;;;;143725;575;46010;-56
2021/12/10 02:09:49;;;;;;;13.70;7.50;;;;;;;;;;143731;568;45020;-56
2021/12/10 02:12:18;;;;;;;16.95;6.93;;;;;;;;;;143728;569;46022;-57
2021/12/10 02:14:56;;;;;;;19.65;8.77;;;;;;;;;;143726;657;46020;-56
2021/12/10 02:17:24;;;;;;;19.12;7.37;;;;;;;;;;143719;586;46020;-57
2021/12/10 02:19:51;;;;;;;15.48;6.95;;;;;;;;;;143730;594;46012;-57
2021/12/10 02:22:18;;;;;;;14.68;6.35;;;;;;;;;;143726;613;46022;-57
2021/12/10 02:24:45;;;;;;;16.83;6.55;;;;;;;;;;143726;584;46024;-57
2021/12/10 02:27:12;;;;;;;13.62;6.57;;;;;;;;;;143727;614;46010;-57
2021/12/10 02:29:41;;;;;;;15.35;7.43;;;;;;;;;;143724;572;46020;-57
2021/12/10 02:32:10;;;;;;;15.23;6.95;;;;;;;;;;143728;576;46022;-57
2021/12/10 02:34:37;;;;;;;18.42;7.12;;;;;;;;;;143726;572;46021;-56
2021/12/10 02:37:06;;;;;;;14.45;5.85;;;;;;;;;;143726;615;46010;-57
2021/12/10 02:39:33;;;;;;;17.33;6.97;;;;;;;;;;143730;620;46012;-57
2021/12/10 02:42:01;;;;;;;12.82;6.72;;;;;;;;;;143724;584;46023;-55
2021/12/10 02:44:31;;;;;;;16.08;7.20;;;;;;;;;;143727;581;46020;-57
2021/12/10 02:46:59;;;;;;;17.15;6.97;;;;;;;;;;143727;596;46010;-56
2021/12/10 02:49:27;;;;;;;19.80;6.35;;;;;;;;;;143729;574;46021;-56
2021/12/10 02:51:54;;;;;;;14.25;6.22;;;;;;;;;;143728;693;46023;-55
2021/12/10 02:54:32;;;;;;;12.20;6.05;;;;;;;;;;143727;716;46020;-56
2021/12/10 02:56:58;;;;;;;12.32;4.75;;;;;;;;;;143728;580;46910;-56
2021/12/10 02:59:25;;;;;;;12.52;4.85;;;;;;;;;;143732;581;46020;-55
2021/12/10 03:01:53;;;;;;;7.43;4.28;;;;;;;;;;143728;681;46022;-56
2021/12/10 03:04:20;;;;;;;12.13;5.15;;;;;;;;;;143735;613;46021;-56
2021/12/10 03:06:54;;;;;;;14.65;6.22;;;;;;;;;;143737;573;46010;-56
2021/12/10 03:09:23;;;;;;;15.02;6.75;;;;;;;;;;143744;727;45020;-56
2021/12/10 03:11:52;;;;;;;15.82;6.78;;;;;;;;;;143744;589;46022;-56
2021/12/10 03:14:25;;;;;;;14.00;6.57;;;;;;;;;;143741;608;46020;-55
2021/12/10 03:16:55;;;;;;;18.60;6.87;;;;;;;;;;143740;569;46010;-55
2021/12/10 03:19:22;;;;;;;11.63;5.00;;;;;;;;;;143745;666;46021;-56
2021/12/10 03:21:51;;;;;;;12.60;5.37;;;;;;;;;;143745;570;46022;-56
2021/12/10 03:30:51;;;;;;;12.13;5.37;;;;;;;;;;143741;565;46020;-59
2021/12/10 03:33:19;;;;;;;11.00;5.10;;;;;;;;;;143735;608;47022;-58
2021/12/10 03:35:48;;;;;;;8.35;4.62;;;;;;;;;;143740;564;47010;-59
2021/12/10 03:38:22;;;;;;;9.02;4.35;;;;;;;;;;143739;635;46020;-57
2021/12/10 03:40:50;;;;;;;13.17;4.67;;;;;;;;;;143744;589;46020;-59
2021/12/10 03:43:18;;;;;;;10.70;5.10;;;;;;;;;;143741;569;47023;-58
2021/12/10 03:45:51;;;;;;;11.05;4.70;;;;;;;;;;143737;565;47010;-57
2021/12/10 03:48:23;;;;;;;11.90;4.93;;;;;;;;;;143739;581;46020;-58
2021/12/10 03:50:50;;;;;;;13.23;5.20;;;;;;;;;;143744;580;46021;-59
2021/12/10 03:53:18;;;;;;;9.23;5.32;;;;;;;;;;143741;641;47022;-59
2021/12/10 03:55:46;;;;;;;11.73;4.37;;;;;;;;;;143739;601;47010;-59
2021/12/10 03:58:13;;;;;;;10.15;4.50;;;;;;;;;;143736;576;46021;-58
2021/12/10 04:00:45;;;;;;;10.70;4.50;;;;;;;;;;143742;566;46020;-57
2021/12/10 04:03:14;;;;;;;13.10;4.80;;;;;;;;;;143739;589;47021;-57
2021/12/10 04:05:41;;;;;;;8.60;4.72;;;;;;;;;;143727;570;47010;-58
2021/12/10 04:08:09;;;;;;;9.05;4.87;;;;;;;;;;143727;607;46020;-56
2021/12/10 04:10:37;;;;;;;9.85;4.47;;;;;;;;;;143730;635;46021;-57
2021/12/10 04:13:05;;;;;;;8.43;4.05;;;;;;;;;;143726;593;47020;-57
2021/12/10 04:15:35;;;;;;;8.63;4.50;;;;;;;;;;143727;599;47010;-58
2021/12/10 04:18:02;;;;;;;10.90;4.65;;;;;;;;;;143726;575;46020;-57
2021/12/10 04:20:31;;;;;;;7.22;4.40;;;;;;;;;;143731;608;46021;-56
2021/12/10 04:23:01;;;;;;;6.65;3.85;;;;;;;;;;143725;594;47020;-58
2021/12/10 04:25:29;;;;;;;10.20;4.57;;;;;;;;;;143726;639;47011;-58
2021/12/10 04:28:04;;;;;;;14.30;5.28;;;;;;;;;;143727;607;46021;-57
2021/12/10 04:30:35;;;;;;;7.50;3.83;;;;;;;;;;143730;621;47012;-56
2021/12/10 04:33:05;;;;;;;7.78;4.25;;;;;;;;;;143726;610;47022;-57
2021/12/10 04:35:33;;;;;;;9.32;4.47;;;;;;;;;;143727;584;47010;-57
2021/12/10 04:38:01;;;;;;;6.50;3.75;;;;;;;;;;143726;635;46020;-58
2021/12/10 04:40:28;;;;;;;12.52;5.00;;;;;;;;;;143728;581;46020;-57
2021/12/10 04:42:55;;;;;;;5.00;3.22;;;;;;;;;;143727;730;47020;-58
2021/12/10 04:45:22;;;;;;;5.22;3.60;;;;;;;;;;143726;622;47010;-56
2021/12/10 04:47:50;;;;;;;8.35;4.03;;;;;;;;;;143725;576;46020;-58
2021/12/10 04:50:19;;;;;;;4.68;3.25;;;;;;;;;;143729;572;47012;-58
2021/12/10 04:52:46;;;;;;;2.75;2.00;;;;;;;;;;143726;579;47022;-58
2021/12/10 04:55:15;;;;;;;1.83;1.25;;;;;;;;;;143727;621;47010;-56
2021/12/10 04:57:43;;;;;;;4.07;2.08;;;;;;;;;;143724;587;46021;-56
2021/12/10 05:00:13;;;;;;;6.82;4.45;;;;;;;;;;143731;623;46020;-56
2021/12/10 05:02:40;;;;;;;9.27;5.22;;;;;;;;;;143727;589;47022;-58
2021/12/10 05:05:08;;;;;;;5.15;3.60;;;;;;;;;;143726;695;47010;-56
2021/12/10 05:07:37;;;;;;;4.85;1.62;;;;;;;;;;143727;569;46020;-57
2021/12/10 05:10:10;;;;;;;3.58;1.95;;;;;;;;;;143731;619;46020;-56
2021/12/10 05:12:38;;;;;;;1.45;1.15;;;;;;;;;;143724;609;47023;-58
2021/12/10 05:15:09;;;;;;;1.23;1.00;;;;;;;;;;143725;571;47010;-58
2021/12/10 05:17:36;;;;;;;1.67;1.48;;;;;;;;;;143725;581;46020;-56
2021/12/10 05:20:12;;;;;;;4.18;2.25;;;;;;;;;;143730;587;46021;-58
2021/12/10 05:22:44;;;;;;;2.50;1.35;;;;;;;;;;143727;700;47020;-58
2021/12/10 05:25:12;;;;;;;1.62;1.20;;;;;;;;;;143726;690;47010;-58
2021/12/10 05:27:41;;;;;;;2.47;1.62;;;;;;;;;;143725;566;46021;-58
2021/12/10 05:30:11;;;;;;;4.95;2.37;;;;;;;;;;143731;574;46020;-56
2021/12/10 05:32:38;;;;;;;1.17;0.95;;;;;;;;;;143727;586;47021;-57
2021/12/10 05:35:07;;;;;;;5.97;4.15;;;;;;;;;;143728;569;47010;-56
2021/12/10 05:37:34;;;;;;;6.57;4.82;;;;;;;;;;143724;565;46020;-57
2021/12/10 05:40:04;;;;;;;8.43;4.95;;;;;;;;;;143730;588;46020;-58
2021/12/10 05:42:31;;;;;;;5.25;3.72;;;;;;;;;;143727;598;47020;-56
2021/12/10 05:44:58;;;;;;;3.60;2.35;;;;;;;;;;143728;565;47010;-57
2021/12/10 05:47:25;;;;;;;4.07;2.75;;;;;;;;;;143727;610;46020;-56
2021/12/10 05:49:52;;;;;;;4.97;2.58;;;;;;;;;;143730;586;46020;-56
2021/12/10 05:52:19;;;;;;;6.20;3.35;;;;;;;;;;143727;580;47020;-58
2021/12/10 05:54:46;;;;;;;3.70;1.65;;;;;;;;;;143726;564;47011;-56
2021/12/10 05:57:13;;;;;;;5.07;2.00;;;;;;;;;;143725;586;46020;-57
2021/12/10 05:59:40;;;;;;;5.25;3.15;;;;;;;;;;143730;576;46020;-57
2021/12/10 06:02:07;;;;;;;6.78;4.20;;;;;;;;;;143724;566;47022;-56
2021/12/10 06:04:35;;;;;;;12.27;5.50;;;;;;;;;;143726;564;47010;-58
2021/12/10 06:07:03;;;;;;;7.12;4.80;;;;;;;;;;143727;592;46020;-56
2021/12/10 06:09:30;;;;;;;5.62;3.42;;;;;;;;;;143729;596;46037;-58
2021/12/10 06:11:57;;;;;;;5.47;3.58;;;;;;;;;;143726;588;47023;-57
2021/12/10 06:14:24;;;;;;;2.28;1.73;;;;;;;;;;143726;570;47012;-56
2021/12/10 06:16:54;;;;;;;3.70;2.72;;;;;;;;;;143726;581;46020;-57
2021/12/10 06:19:23;;;;;;;4.20;2.35;;;;;;;;;;143728;591;46021;-58
2021/12/10 06:21:50;;;;;;;2.05;0.95;;;;;;;;;;143727;571;47020;-56
2021/12/10 06:24:17;;;;;;;3.90;2.78;;;;;;;;;;143726;687;47013;-56
2021/12/10 06:26:44;;;;;;;4.25;3.00;;;;;;;;;;143726;591;46021;-58
2021/12/10 06:29:11;;;;;;;4.15;3.08;;;;;;;;;;143731;565;46020;-56
2021/12/10 06:31:38;;;;;;;2.60;2.10;;;;;;;;;;143726;645;47022;-57
2021/12/10 06:34:06;;;;;;;5.03;2.55;;;;;;;;;;143720;564;47013;-58
2021/12/10 06:36:35;;;;;;;3.58;2.75;;;;;;;;;;143726;579;46020;-56
2021/12/10 06:39:04;;;;;;;4.28;2.85;;;;;;;;;;143731;693;46020;-58
2021/12/10 06:41:31;;;;;;;8.55;4.10;;;;;;;;;;143726;656;47023;-56
2021/12/10 06:43:59;;;;;;;0.73;0.65;;;;;;;;;;143728;585;47012;-56
2021/12/10 06:46:26;;;;;;;1.00;0.88;;;;;;;;;;143724;569;46020;-57
2021/12/10 06:48:53;;;;;;;2.37;1.65;;;;;;;;;;143729;572;46021;-56
2021/12/10 06:51:21;;;;;;;3.58;1.65;;;;;;;;;;143725;573;47020;-57
2021/12/10 06:53:49;;;;;;;4.53;1.75;;;;;;;;;;143726;570;47012;-58
2021/12/10 06:56:17;;;;;;;19.17;13.25;;;;;;;;;;143725;591;46021;-56
2021/12/10 06:58:44;;;;;;;27.48;18.50;;;;;;;;;;143731;564;46020;-58
2021/12/10 07:01:17;;;;;;;27.80;18.00;;;;;;;;;;143727;588;47021;-56
2021/12/10 07:03:45;;;;;;;30.27;20.52;;;;;;;;;;143726;576;47012;-57
2021/12/10 07:06:12;;;;;;;28.58;19.52;;;;;;;;;;143724;569;46020;-56
2021/12/10 07:08:41;;;;;;;20.52;13.85;;;;;;;;;;143728;582;46020;-58
2021/12/10 07:11:11;;;;;;;21.87;14.90;;;;;;;;;;143725;570;47023;-56
2021/12/10 07:13:39;;;;;;;18.85;13.13;;;;;;;;;;143724;575;47012;-57
2021/12/10 07:16:06;;;;;;;16.33;9.82;;;;;;;;;;143718;579;46020;-56
2021/12/10 07:18:34;;;;;;;34.05;11.73;;;;;;;;;;143727;685;46021;-57
2021/12/10 07:21:01;;;;;;;36.35;10.48;;;;;;;;;;143724;651;47020;-58
2021/12/10 07:23:28;;;;;;;20.33;9.85;;;;;;;;;;143723;575;47013;-57
2021/12/10 07:25:56;;;;;;;18.87;9.57;;;;;;;;;;143724;595;46021;-56
2021/12/10 07:28:23;;;;;;;22.87;9.73;;;;;;;;;;143727;672;46020;-56
2021/12/10 07:30:52;;;;;;;14.02;7.20;;;;;;;;;;143724;591;47020;-56
2021/12/10 07:33:20;;;;;;;8.93;5.72;;;;;;;;;;143724;604;47012;-55
2021/12/10 07:35:49;;;;;;;12.10;4.50;;;;;;;;;;143724;615;46020;-57
2021/12/10 07:38:16;;;;;;;12.43;4.57;;;;;;;;;;143728;739;46020;-57
2021/12/10 07:40:44;;;;;;;7.53;5.00;;;;;;;;;;143719;574;47023;-56
2021/12/10 07:43:12;;;;;;;6.20;4.00;;;;;;;;;;143724;616;47012;-57
2021/12/10 07:45:40;;;;;;;9.60;3.95;;;;;;;;;;143721;639;46020;-58
2021/12/10 07:48:11;;;;;;;27.73;17.77;;;;;;;;;;143727;572;46021;-58
2021/12/10 07:50:52;;;;;;;18.92;10.05;;;;;;;;;;143724;622;47022;-58
2021/12/10 07:53:20;;;;;;;13.70;7.72;;;;;;;;;;143725;684;47013;-58
2021/12/10 07:55:49;;;;;;;13.80;8.05;;;;;;;;;;143723;579;46021;-57
2021/12/10 07:58:17;;;;;;;31.50;20.37;;;;;;;;;;143730;738;46012;-58
2021/12/10 08:00:46;;;;;;;30.02;16.48;;;;;;;;;;143725;566;47022;-57
2021/12/10 08:03:13;;;;;;;19.10;8.55;;;;;;;;;;143723;606;47012;-57
2021/12/10 08:05:41;;;;;;;18.83;12.43;;;;;;;;;;143719;569;46020;-56
2021/12/10 08:08:10;;;;;;;21.42;14.05;;;;;;;;;;143725;565;46020;-56
2021/12/10 08:10:38;;;;;;;19.02;8.73;;;;;;;;;;143724;632;47023;-56
2021/12/10 08:13:05;;;;;;;14.85;10.00;;;;;;;;;;143724;690;47012;-57
2021/12/10 08:15:33;;;;;;;17.40;9.52;;;;;;;;;;143726;564;46038;-57
2021/12/10 08:18:00;;;;;;;17.00;9.93;;;;;;;;;;143728;587;46021;-58
2021/12/10 08:20:28;;;;;;;13.60;7.45;;;;;;;;;;143725;749;47022;-56
2021/12/10 08:22:56;;;;;;;10.25;6.87;;;;;;;;;;143724;621;47012;-57
2021/12/10 08:25:24;;;;;;;13.38;8.48;;;;;;;;;;143725;746;46021;-58
2021/12/10 08:27:52;;;;;;;13.40;7.72;;;;;;;;;;143728;671;46020;-56
2021/12/10 08:30:22;;;;;;;10.95;7.25;;;;;;;;;;143717;612;47022;-58
2021/12/10 08:32:52;;;;;;;12.70;6.47;;;;;;;;;;143721;617;50012;-58
2021/12/10 08:35:23;;;;;;;9.70;5.18;;;;;;;;;;143724;580;46014;-57
2021/12/10 08:37:51;;;;;;;11.80;5.95;;;;;;;;;;143729;659;46020;-57
2021/12/10 08:40:25;;;;;;;9.63;5.05;;;;;;;;;;143724;564;47031;-57
2021/12/10 08:42:53;;;;;;;8.43;5.62;;;;;;;;;;143724;586;47012;-56
2021/12/10 08:45:22;;;;;;;7.47;5.40;;;;;;;;;;143725;686;46020;-55
2021/12/10 08:47:53;;;;;;;6.05;4.40;;;;;;;;;;143727;626;46021;-57
2021/12/10 08:50:23;;;;;;;3.58;2.10;;;;;;;;;;143725;635;47020;-56
2021/12/10 08:52:57;;;;;;;9.95;3.08;;;;;;;;;;143724;669;47012;-57
2021/12/10 08:55:26;;;;;;;7.18;3.15;;;;;;;;;;143723;612;46021;-56
2021/12/10 08:57:54;;;;;;;8.10;2.45;;;;;;;;;;143729;680;46020;-58
2021/12/10 09:00:21;;;;;;;3.62;1.35;;;;;;;;;;143725;578;47021;-56
2021/12/10 09:02:51;;;;;;;4.60;2.58;;;;;;;;;;143725;590;47012;-57
2021/12/10 09:05:19;;;;;;;5.15;2.17;;;;;;;;;;143723;569;46020;-57
2021/12/10 09:07:46;;;;;;;6.55;3.05;;;;;;;;;;143729;570;46020;-58
2021/12/10 09:10:16;;;;;;;7.68;2.95;;;;;;;;;;143724;564;47023;-57
2021/12/10 09:12:44;;;;;;;6.93;1.77;;;;;;;;;;143725;606;47012;-55
2021/12/10 09:15:17;;;;;;;3.00;1.30;;;;;;;;;;143723;596;46020;-57
2021/12/10 09:17:44;;;;;;;5.45;1.67;;;;;;;;;;143729;641;46021;-57
2021/12/10 09:20:17;;;;;;;7.30;1.58;;;;;;;;;;143723;601;47020;-58
2021/12/10 09:22:44;;;;;;;1.65;1.10;;;;;;;;;;143724;586;47013;-56
2021/12/10 09:25:12;;;;;;;5.68;2.37;;;;;;;;;;143723;577;46021;-57
2021/12/10 09:27:40;;;;;;;13.00;2.28;;;;;;;;;;143723;611;46020;-57
2021/12/10 09:30:11;;;;;;;5.70;1.90;;;;;;;;;;143725;584;47020;-58
2021/12/10 09:32:38;;;;;;;4.32;3.10;;;;;;;;;;143724;565;47012;-57
2021/12/10 09:35:07;;;;;;;3.70;2.58;;;;;;;;;;143725;566;46022;-58
2021/12/10 09:37:36;;;;;;;5.70;2.12;;;;;;;;;;143728;570;47018;-57
2021/12/10 09:40:12;;;;;;;3.37;1.23;;;;;;;;;;143725;573;47020;-56
2021/12/10 09:42:42;;;;;;;9.15;3.62;;;;;;;;;;143725;597;47012;-56
2021/12/10 09:45:12;;;;;;;6.25;2.70;;;;;;;;;;143723;627;46020;-57
2021/12/10 09:47:40;;;;;;;3.78;1.60;;;;;;;;;;143725;565;47010;-58
2021/12/10 09:50:09;;;;;;;4.62;1.30;;;;;;;;;;143723;624;47022;-59
2021/12/10 09:52:36;;;;;;;3.72;1.85;;;;;;;;;;143723;623;47012;-57
2021/12/10 09:55:06;;;;;;;3.17;1.37;;;;;;;;;;143725;566;46019;-57
2021/12/10 09:57:35;;;;;;;6.03;2.75;;;;;;;;;;143728;587;46022;-57
2021/12/10 10:00:09;;;;;;;4.53;1.60;;;;;;;;;;143724;564;47020;-56
2021/12/10 10:02:37;;;;;;;4.43;1.83;;;;;;;;;;143724;565;47012;-59
2021/12/10 10:05:05;;;;;;;6.45;1.62;;;;;;;;;;143724;564;47023;-58
2021/12/10 10:07:33;;;;;;;9.57;1.85;;;;;;;;;;143728;589;46022;-56
2021/12/10 10:10:15;;;;;;;2.97;1.77;;;;;;;;;;143721;610;47021;-56
2021/12/10 10:12:45;;;;;;;6.12;2.58;;;;;;;;;;143724;578;47012;-56
2021/12/10 10:15:19;;;;;;;1.15;0.80;;;;;;;;;;143724;635;46018;-56
2021/12/10 10:17:46;;;;;;;2.10;1.27;;;;;;;;;;143727;620;46023;-57
2021/12/10 10:20:15;;;;;;;2.33;1.30;;;;;;;;;;143724;569;47018;-58
2021/12/10 10:22:44;;;;;;;3.20;1.10;;;;;;;;;;143723;594;47013;-57
2021/12/10 10:25:13;;;;;;;1.65;0.55;;;;;;;;;;143723;570;46019;-57
2021/12/10 10:27:42;;;;;;;2.90;0.62;;;;;;;;;;143729;571;46022;-58
2021/12/10 10:30:23;;;;;;;3.92;1.20;;;;;;;;;;143724;622;47020;-57
2021/12/10 10:32:50;;;;;;;9.02;5.57;;;;;;;;;;143725;569;47012;-57
2021/12/10 10:35:22;;;;;;;10.50;6.62;;;;;;;;;;143723;564;46018;-57
2021/12/10 10:37:50;;;;;;;5.80;4.00;;;;;;;;;;143727;612;46022;-58
2021/12/10 10:40:21;;;;;;;2.83;2.03;;;;;;;;;;143725;592;47021;-58
2021/12/10 10:42:50;;;;;;;6.82;2.25;;;;;;;;;;143724;697;47012;-57
2021/12/10 10:45:23;;;;;;;5.50;2.95;;;;;;;;;;143722;570;46018;-57
2021/12/10 10:47:51;;;;;;;3.03;1.80;;;;;;;;;;143727;573;46023;-56
2021/12/10 10:50:29;;;;;;;10.70;2.17;;;;;;;;;;143725;572;47018;-58
2021/12/10 10:53:00;;;;;;;4.35;2.05;;;;;;;;;;143725;565;47012;-57
2021/12/10 10:55:32;;;;;;;5.28;2.92;;;;;;;;;;143725;606;46019;-58
2021/12/10 10:58:15;;;;;;;4.68;3.00;;;;;;;;;;143726;576;46022;-57
2021/12/10 11:01:02;;;;;;;2.58;1.08;;;;;;;;;;143722;593;47020;-57
2021/12/10 11:03:38;;;;;;;6.07;3.17;;;;;;;;;;143724;575;47012;-56
2021/12/10 11:06:14;;;;;;;3.15;1.33;;;;;;;;;;143723;565;46018;-56
2021/12/10 11:08:49;;;;;;;5.37;1.73;;;;;;;;;;143728;591;46022;-57
2021/12/10 11:11:20;;;;;;;6.12;1.95;;;;;;;;;;143725;573;47020;-57
2021/12/10 11:13:59;;;;;;;7.03;1.00;;;;;;;;;;143724;587;47012;-58
2021/12/10 11:16:28;;;;;;;3.92;1.33;;;;;;;;;;143724;588;46019;-58
2021/12/10 11:19:03;;;;;;;9.10;1.95;;;;;;;;;;143726;638;47010;-56
2021/12/10 11:21:47;;;;;;;5.00;2.78;;;;;;;;;;143724;575;47020;-57
2021/12/10 11:24:24;;;;;;;5.93;2.42;;;;;;;;;;143724;606;47013;-58
2021/12/10 11:26:55;;;;;;;5.85;2.58;;;;;;;;;;143723;615;46018;-57
2021/12/10 11:29:55;;;;;;;12.73;7.47;;;;;;;;;;143727;587;46022;-56
2021/12/10 11:33:01;;;;;;;5.53;3.60;;;;;;;;;;143725;592;47023;-56
2021/12/10 11:35:33;;;;;;;9.65;6.25;;;;;;;;;;143723;565;47012;-57
2021/12/10 11:38:18;;;;;;;9.73;5.90;;;;;;;;;;143723;576;46018;-57
2021/12/10 11:41:01;;;;;;;4.65;2.65;;;;;;;;;;143728;610;46023;-57
2021/12/10 11:44:21;;;;;;;12.05;5.90;;;;;;;;;;143725;579;47018;-56
2021/12/10 11:49:52;;;;;;;6.18;2.30;;;;;;;;;;143724;577;47018;-58
2021/12/10 11:52:23;;;;;;;5.05;2.58;;;;;;;;;;143728;608;46022;-56
2021/12/10 11:54:56;;;;;;;3.97;2.08;;;;;;;;;;143724;610;47018;-58
2021/12/10 11:57:32;;;;;;;6.53;2.53;;;;;;;;;;143724;617;47012;-57
2021/12/10 12:00:06;;;;;;;5.05;2.50;;;;;;;;;;143723;567;46018;-56
2021/12/10 12:02:37;;;;;;;5.55;1.80;;;;;;;;;;143727;588;46023;-57
2021/12/10 12:05:11;;;;;;;2.85;1.62;;;;;;;;;;143724;582;47018;-57
2021/12/10 12:07:40;;;;;;;3.80;2.40;;;;;;;;;;143725;588;47012;-58
2021/12/10 12:10:28;;;;;;;5.32;2.30;;;;;;;;;;143724;614;46018;-58
2021/12/10 12:13:24;;;;;;;9.10;2.50;;;;;;;;;;143725;581;46022;-57
2021/12/10 12:15:59;;;;;;;4.75;1.80;;;;;;;;;;143725;607;47021;-56
2021/12/10 12:18:32;;;;;;;3.12;1.80;;;;;;;;;;143724;589;47012;-56
2021/12/10 12:27:27;;;;;;;3.85;1.45;;;;;;;;;;143725;613;47012;-58
2021/12/10 12:29:58;;;;;;;6.15;2.72;;;;;;;;;;143723;614;47013;-56
2021/12/10 12:32:32;;;;;;;4.35;2.53;;;;;;;;;;143724;592;47016;-58
2021/12/10 12:35:15;;;;;;;4.15;2.00;;;;;;;;;;143728;631;46022;-57
2021/12/10 12:37:42;;;;;;;5.20;3.22;;;;;;;;;;143726;594;47019;-57
2021/12/10 12:40:11;;;;;;;5.20;2.28;;;;;;;;;;143724;564;47012;-57
2021/12/10 12:42:49;;;;;;;9.93;3.35;;;;;;;;;;143726;603;46018;-57
2021/12/10 12:45:23;;;;;;;5.80;3.22;;;;;;;;;;143724;567;47011;-58
2021/12/10 12:47:54;;;;;;;4.97;3.00;;;;;;;;;;143722;620;47020;-57
2021/12/10 12:50:34;;;;;;;5.03;2.05;;;;;;;;;;143723;636;47012;-57
2021/12/10 12:53:05;;;;;;;8.07;3.95;;;;;;;;;;143723;589;46018;-57
2021/12/10 12:55:54;;;;;;;4.30;2.75;;;;;;;;;;143728;620;46022;-57
2021/12/10 12:58:44;;;;;;;5.80;2.67;;;;;;;;;;143725;576;47020;-57
2021/12/10 13:01:36;;;;;;;7.05;2.95;;;;;;;;;;143723;644;47012;-58
2021/12/10 13:04:10;;;;;;;6.82;2.42;;;;;;;;;;143724;564;46018;-57
2021/12/10 13:06:59;;;;;;;6.20;4.12;;;;;;;;;;143728;630;46022;-59
2021/12/10 13:09:41;;;;;;;7.43;3.92;;;;;;;;;;143724;574;47018;-58
2021/12/10 13:12:24;;;;;;;8.15;3.45;;;;;;;;;;143721;567;47012;-58
2021/12/10 13:15:02;;;;;;;4.85;2.78;;;;;;;;;;143723;564;46018;-58
2021/12/10 13:17:37;;;;;;;8.30;4.05;;;;;;;;;;143728;578;46023;-56
2021/12/10 13:20:14;;;;;;;5.70;3.53;;;;;;;;;;143725;611;47020;-57
2021/12/10 13:22:41;;;;;;;6.25;2.85;;;;;;;;;;143724;593;47012;-57
2021/12/10 13:25:17;;;;;;;5.18;2.65;;;;;;;;;;143724;575;46018;-57
2021/12/10 13:27:45;;;;;;;5.62;2.90;;;;;;;;;;143729;587;46022;-56
2021/12/10 13:30:17;;;;;;;7.22;3.08;;;;;;;;;;143726;586;47020;-58
2021/12/10 13:32:46;;;;;;;6.22;3.97;;;;;;;;;;143724;606;47012;-57
2021/12/10 13:35:16;;;;;;;7.70;4.68;;;;;;;;;;143724;569;46018;-58
2021/12/10 13:37:44;;;;;;;5.75;3.87;;;;;;;;;;143724;622;46023;-57
2021/12/10 13:40:12;;;;;;;7.47;4.53;;;;;;;;;;143723;614;47020;-58
2021/12/10 13:42:39;;;;;;;5.82;3.47;;;;;;;;;;143724;580;47012;-56
2021/12/10 13:45:09;;;;;;;6.20;3.60;;;;;;;;;;143719;608;46019;-56
2021/12/10 13:47:40;;;;;;;4.43;3.47;;;;;;;;;;143728;603;47010;-57
2021/12/10 13:50:16;;;;;;;2.60;2.03;;;;;;;;;;143726;596;47018;-57
2021/12/10 13:53:00;;;;;;;3.92;2.90;;;;;;;;;;143724;571;47012;-57
2021/12/10 13:55:40;;;;;;;4.03;3.00;;;;;;;;;;143725;587;46018;-56
2021/12/10 13:58:23;;;;;;;4.57;3.67;;;;;;;;;;143729;582;46022;-56
2021/12/10 14:01:01;;;;;;;4.28;2.80;;;;;;;;;;143724;700;47021;-57
2021/12/10 14:04:12;;;;;;;2.65;2.28;;;;;;;;;;143724;612;47012;-57
2021/12/10 14:07:15;;;;;;;2.70;2.05;;;;;;;;;;143721;602;46020;-58
2021/12/10 14:09:53;;;;;;;3.72;2.95;;;;;;;;;;143726;597;47030;-56
2021/12/10 14:12:34;;;;;;;3.55;2.62;;;;;;;;;;143725;645;47020;-58
2021/12/10 14:15:53;;;;;;;5.25;2.67;;;;;;;;;;143725;589;47013;-56
2021/12/10 14:18:24;;;;;;;2.28;1.98;;;;;;;;;;143724;646;46018;-57
2021/12/10 14:21:27;;;;;;;5.40;3.90;;;;;;;;;;143728;572;46022;-56
2021/12/10 14:24:00;;;;;;;5.53;4.03;;;;;;;;;;143725;595;47018;-58
2021/12/10 14:26:33;;;;;;;4.80;2.37;;;;;;;;;;143723;681;48022;-55
2021/12/10 14:29:10;;;;;;;3.08;2.22;;;;;;;;;;143725;570;46018;-58
2021/12/10 14:31:43;;;;;;;2.47;1.62;;;;;;;;;;143729;628;46022;-56
2021/12/10 14:34:18;;;;;;;2.95;1.95;;;;;;;;;;143725;586;47018;-58
2021/12/10 14:36:57;;;;;;;;;;;;;;;;;;143730;978;47012;-58
2021/12/10 14:39:24;;;;;;;2.28;1.90;;;;;;;;;;143729;583;46018;-55
2021/12/10 14:41:54;;;;;;;3.75;2.87;;;;;;;;;;143729;585;46022;-56
2021/12/10 14:44:30;;;;;;;11.43;10.23;;;;;;;;;;143727;663;47018;-55
2021/12/10 14:47:11;;;;;;;12.57;11.27;;;;;;;;;;143724;700;47012;-55
2021/12/10 14:49:43;;;;;;;8.57;5.47;;;;;;;;;;143724;594;46018;-57
2021/12/10 14:52:39;;;;;;;11.80;5.87;;;;;;;;;;143730;616;46023;-56
2021/12/10 14:55:27;;;;;;;15.90;8.10;;;;;;;;;;143725;590;47018;-55
2021/12/10 14:58:14;;;;;;;20.02;13.80;;;;;;;;;;143724;634;47012;-56
2021/12/10 15:01:09;;;;;;;13.30;8.10;;;;;;;;;;143720;582;46019;-57
2021/12/10 15:03:47;;;;;;;24.92;15.45;;;;;;;;;;143729;587;46022;-55
2021/12/10 15:06:17;;;;;;;42.25;26.80;;;;;;;;;;143724;589;47019;-57
2021/12/10 15:08:57;;;;;;;28.60;17.90;;;;;;;;;;143725;630;47012;-57
2021/12/10 15:11:47;;;;;;;16.45;9.95;;;;;;;;;;143726;581;46018;-55
2021/12/10 15:14:22;;;;;;;12.35;7.45;;;;;;;;;;143729;583;46024;-56
2021/12/10 15:16:57;;;;;;;14.00;8.43;;;;;;;;;;143724;582;48045;-56
2021/12/10 15:19:29;;;;;;;10.48;7.07;;;;;;;;;;143726;591;47012;-57
2021/12/10 15:22:08;;;;;;;7.47;4.60;;;;;;;;;;143726;592;46019;-56
2021/12/10 15:24:55;;;;;;;5.28;3.55;;;;;;;;;;143730;592;46022;-56
2021/12/10 15:27:32;;;;;;;6.57;3.35;;;;;;;;;;143724;569;47018;-55
2021/12/10 15:30:07;;;;;;;7.18;3.60;;;;;;;;;;143726;585;47013;-56
2021/12/10 15:32:41;;;;;;;6.85;3.03;;;;;;;;;;143726;586;46018;-55